createdAt,value
2023-01-22T00:00:49.763Z,5.91
2023-01-22T00:05:59.054Z,6.81
2023-01-22T00:11:05.213Z,6.33
2023-01-22T00:16:11.466Z,4.90
2023-01-22T00:21:17.956Z,5.59
2023-01-22T00:26:24.203Z,5.47
2023-01-22T00:31:30.390Z,5.03
2023-01-22T00:36:36.541Z,4.43
2023-01-22T00:41:42.726Z,4.86
2023-01-22T00:46:49.051Z,4.61
2023-01-22T00:51:55.127Z,3.90
2023-01-22T00:57:01.339Z,5.50
2023-01-22T01:02:07.581Z,4.24
2023-01-22T01:07:14.086Z,3.92
2023-01-22T01:12:20.157Z,4.13
2023-01-22T01:17:26.444Z,4.61
2023-01-22T01:22:32.726Z,4.48
2023-01-22T01:27:39.154Z,3.78
2023-01-22T01:32:45.253Z,3.76
2023-01-22T01:37:51.493Z,3.90
2023-01-22T01:42:58.444Z,4.21
2023-01-22T01:48:04.782Z,3.80
2023-01-22T01:53:13.591Z,3.22
2023-01-22T01:58:19.996Z,3.24
2023-01-22T02:03:26.147Z,3.38
2023-01-22T02:08:32.451Z,3.23
2023-01-22T02:13:38.598Z,3.78
2023-01-22T02:18:44.895Z,3.38
2023-01-22T02:23:51.052Z,3.40
2023-01-22T02:28:57.335Z,3.45
2023-01-22T02:34:03.575Z,3.23
2023-01-22T02:39:10.112Z,3.70
2023-01-22T02:44:16.314Z,3.50
2023-01-22T02:49:22.610Z,3.35
2023-01-22T02:54:28.738Z,3.70
2023-01-22T02:59:35.042Z,4.18
2023-01-22T03:04:41.967Z,4.08
2023-01-22T03:09:48.203Z,3.28
2023-01-22T03:14:54.362Z,5.71
2023-01-22T03:20:00.677Z,3.11
2023-01-22T03:25:06.728Z,3.30
2023-01-22T03:30:12.921Z,4.15
2023-01-22T03:35:19.104Z,4.22
2023-01-22T03:40:25.471Z,3.45
2023-01-22T03:45:34.804Z,4.12
2023-01-22T03:50:41.335Z,3.92
2023-01-22T03:55:47.492Z,4.04
2023-01-22T04:00:53.708Z,3.68
2023-01-22T04:05:59.852Z,3.50
2023-01-22T04:11:06.922Z,3.61
2023-01-22T04:16:16.134Z,3.41
2023-01-22T04:21:22.401Z,4.41
2023-01-22T04:26:28.514Z,4.03
2023-01-22T04:31:34.851Z,3.72
2023-01-22T04:36:40.900Z,4.29
2023-01-22T04:41:47.177Z,3.79
2023-01-22T04:46:53.243Z,4.47
2023-01-22T04:51:59.623Z,4.14
2023-01-22T04:57:05.745Z,4.02
2023-01-22T05:02:12.223Z,4.27
2023-01-22T05:07:19.153Z,4.35
2023-01-22T05:12:25.370Z,3.97
2023-01-22T05:17:31.482Z,4.05
2023-01-22T05:22:37.836Z,4.06
2023-01-22T05:27:44.196Z,4.11
2023-01-22T05:32:50.722Z,3.99
2023-01-22T05:37:57.105Z,4.40
2023-01-22T05:43:03.365Z,4.24
2023-01-22T05:48:09.562Z,3.94
2023-01-22T05:53:17.246Z,4.31
2023-01-22T05:58:21.312Z,3.91
2023-01-22T06:03:27.798Z,4.69
2023-01-22T06:08:34.404Z,4.60
2023-01-22T06:13:39.938Z,4.07
2023-01-22T06:18:46.007Z,4.84
2023-01-22T06:23:52.305Z,4.84
2023-01-22T06:28:58.433Z,4.82
2023-01-22T06:34:04.706Z,5.50
2023-01-22T06:39:10.875Z,4.74
2023-01-22T06:44:17.202Z,5.25
2023-01-22T06:49:23.283Z,4.65
2023-01-22T06:54:29.495Z,5.82
2023-01-22T06:59:38.083Z,5.03
2023-01-22T07:04:44.703Z,5.26
2023-01-22T07:09:50.812Z,5.56
2023-01-22T07:14:57.026Z,5.76
2023-01-22T07:20:03.217Z,5.05
2023-01-22T07:25:09.552Z,5.85
2023-01-22T07:30:15.791Z,5.50
2023-01-22T07:35:21.781Z,5.35
2023-01-22T07:40:27.962Z,5.55
2023-01-22T07:45:34.100Z,7.02
2023-01-22T07:50:40.351Z,6.00
2023-01-22T07:55:46.498Z,5.71
2023-01-22T08:00:52.995Z,6.63
2023-01-22T08:05:59.113Z,5.79
2023-01-22T08:11:05.277Z,5.49
2023-01-22T08:16:12.077Z,6.35
2023-01-22T08:21:18.167Z,5.36
2023-01-22T08:26:24.347Z,5.81
2023-01-22T08:31:30.558Z,5.86
2023-01-22T08:36:36.692Z,5.60
2023-01-22T08:41:49.722Z,5.67
2023-01-22T08:46:45.853Z,5.34
2023-01-22T08:51:52.273Z,5.13
2023-01-22T08:56:58.592Z,5.66
2023-01-22T09:02:04.788Z,5.57
2023-01-22T09:07:10.942Z,5.23
2023-01-22T09:12:16.991Z,5.50
2023-01-22T09:17:23.341Z,4.98
2023-01-22T09:22:29.437Z,6.02
2023-01-22T09:27:35.632Z,5.65
2023-01-22T09:32:41.766Z,5.62
2023-01-22T09:37:48.047Z,5.23
2023-01-22T09:42:54.637Z,5.17
2023-01-22T09:48:00.901Z,5.00
2023-01-22T09:53:06.991Z,5.57
2023-01-22T09:58:13.265Z,4.84
2023-01-22T10:03:21.897Z,4.78
2023-01-22T10:08:25.367Z,5.19
2023-01-22T10:13:34.529Z,10.33
2023-01-22T10:18:40.710Z,5.94
2023-01-22T10:23:46.813Z,5.13
2023-01-22T10:28:53.105Z,5.10
2023-01-22T10:33:59.216Z,5.75
2023-01-22T10:39:05.516Z,5.88
2023-01-22T10:44:11.685Z,4.80
2023-01-22T10:49:17.933Z,4.82
2023-01-22T10:54:24.062Z,6.04
2023-01-22T10:59:30.410Z,5.51
2023-01-22T11:04:36.493Z,4.91
2023-01-22T11:09:42.745Z,5.62
2023-01-22T11:14:48.882Z,4.89
2023-01-22T11:19:55.077Z,5.47
2023-01-22T11:25:01.231Z,4.78
2023-01-22T11:30:07.361Z,4.61
2023-01-22T11:35:13.488Z,4.77
2023-01-22T11:40:20.267Z,4.81
2023-01-22T11:45:25.547Z,6.48
2023-01-22T11:50:31.730Z,5.41
2023-01-22T11:55:37.908Z,4.80
2023-01-22T12:00:44.118Z,6.72
2023-01-22T12:05:50.345Z,5.73
2023-01-22T12:10:56.510Z,6.14
2023-01-22T12:16:04.075Z,5.69
2023-01-22T12:21:08.635Z,6.68
2023-01-22T12:26:14.707Z,6.92
2023-01-22T12:31:21.058Z,4.89
2023-01-22T12:36:27.056Z,5.81
2023-01-22T12:41:33.604Z,7.16
2023-01-22T12:46:39.810Z,6.37
2023-01-22T12:51:45.965Z,5.94
2023-01-22T12:56:52.079Z,5.54
2023-01-22T13:01:58.352Z,5.41
2023-01-22T13:07:04.565Z,5.27
2023-01-22T13:12:10.742Z,4.62
2023-01-22T13:17:16.914Z,7.31
2023-01-22T13:22:23.153Z,6.48
2023-01-22T13:27:29.596Z,7.32
2023-01-22T13:32:35.816Z,5.71
2023-01-22T13:37:41.947Z,6.47
2023-01-22T13:42:48.181Z,8.08
2023-01-22T13:47:54.330Z,6.78
2023-01-22T13:53:00.522Z,6.36
2023-01-22T13:58:06.686Z,8.98
2023-01-22T14:03:12.882Z,5.86
2023-01-22T14:08:18.942Z,7.11
2023-01-22T14:13:25.243Z,6.54
2023-01-22T14:18:31.802Z,5.84
2023-01-22T14:23:38.010Z,5.66
2023-01-22T14:28:44.178Z,5.37
2023-01-22T14:33:50.382Z,5.53
2023-01-22T14:38:56.524Z,5.46
2023-01-22T14:44:02.737Z,5.19
2023-01-22T14:49:08.879Z,6.21
2023-01-22T14:54:15.551Z,5.78
2023-01-22T14:59:53.802Z,6.13
2023-01-22T15:05:00.143Z,5.98
2023-01-22T15:10:06.380Z,6.48
2023-01-22T15:15:12.470Z,9.34
2023-01-22T15:20:18.799Z,9.63
2023-01-22T15:25:24.882Z,5.57
2023-01-22T15:30:31.017Z,6.13
2023-01-22T15:35:37.199Z,8.24
2023-01-22T15:40:43.239Z,6.52
2023-01-22T15:45:49.491Z,7.61
2023-01-22T15:50:55.652Z,9.77
2023-01-22T15:56:01.813Z,8.02
2023-01-22T16:01:08.022Z,6.63
2023-01-22T16:06:14.271Z,7.40
2023-01-22T16:11:20.452Z,7.34
2023-01-22T16:16:26.837Z,6.67
2023-01-22T16:21:32.908Z,6.77
2023-01-22T16:26:39.062Z,7.16
2023-01-22T16:31:45.176Z,6.56
2023-01-22T16:36:51.359Z,7.85
2023-01-22T16:41:57.561Z,9.51
2023-01-22T16:47:04.428Z,6.72
2023-01-22T16:52:22.058Z,6.69
2023-01-22T16:57:17.219Z,7.85
2023-01-22T17:02:23.378Z,6.95
2023-01-22T17:07:33.994Z,6.04
2023-01-22T17:12:35.322Z,8.34
2023-01-22T17:17:41.872Z,7.14
2023-01-22T17:22:48.437Z,8.60
2023-01-22T17:27:55.159Z,6.23
2023-01-22T17:33:01.607Z,7.62
2023-01-22T17:38:08.120Z,6.38
2023-01-22T17:43:15.579Z,9.40
2023-01-22T17:48:22.505Z,8.31
2023-01-22T17:53:29.014Z,8.40
2023-01-22T17:58:35.713Z,6.86
2023-01-22T18:03:42.132Z,8.18
2023-01-22T18:08:48.763Z,9.10
2023-01-22T18:13:55.227Z,6.81
2023-01-22T18:19:01.728Z,6.70
2023-01-22T18:24:08.098Z,8.05
2023-01-22T18:29:14.766Z,6.77
2023-01-22T18:34:21.442Z,6.50
2023-01-22T18:39:28.401Z,6.28
2023-01-22T18:44:34.385Z,6.64
2023-01-22T18:49:40.569Z,6.58
2023-01-22T18:54:46.763Z,8.38
2023-01-22T18:59:52.971Z,7.67
2023-01-22T19:04:59.109Z,7.15
2023-01-22T19:10:05.269Z,7.25
2023-01-22T19:15:11.341Z,7.42
2023-01-22T19:20:17.570Z,6.14
2023-01-22T19:25:23.625Z,6.86
2023-01-22T19:30:29.821Z,6.28
2023-01-22T19:35:35.994Z,6.34
2023-01-22T19:40:42.456Z,7.42
2023-01-22T19:45:48.554Z,12.68
2023-01-22T19:50:54.769Z,7.28
2023-01-22T19:56:00.907Z,6.45
2023-01-22T20:01:07.123Z,6.20
2023-01-22T20:06:13.152Z,7.02
2023-01-22T20:11:19.398Z,5.55
2023-01-22T20:16:25.648Z,7.07
2023-01-22T20:21:31.784Z,6.45
2023-01-22T20:26:37.829Z,5.97
2023-01-22T20:31:44.022Z,6.51
2023-01-22T20:36:50.168Z,5.89
2023-01-22T20:41:56.361Z,5.13
2023-01-22T20:47:02.523Z,6.34
2023-01-22T20:52:10.098Z,5.84
2023-01-22T20:57:17.397Z,5.28
2023-01-22T21:03:22.759Z,5.95
2023-01-22T21:08:29.390Z,5.46
2023-01-22T21:13:35.571Z,6.01
2023-01-22T21:18:41.731Z,5.46
2023-01-22T21:23:47.933Z,4.54
2023-01-22T21:28:54.087Z,6.34
2023-01-22T21:34:00.334Z,6.95
2023-01-22T21:39:06.446Z,5.40
2023-01-22T21:44:12.753Z,5.45
2023-01-22T21:49:18.807Z,5.88
2023-01-22T21:54:24.962Z,6.06
2023-01-22T21:59:31.093Z,4.37
2023-01-22T22:04:37.482Z,4.22
2023-01-22T22:09:43.580Z,5.70
2023-01-22T22:14:49.766Z,5.63
2023-01-22T22:19:55.899Z,5.49
2023-01-22T22:25:02.223Z,4.56
2023-01-22T22:30:09.146Z,5.49
2023-01-22T22:35:15.318Z,6.39
2023-01-22T22:40:21.516Z,4.41
2023-01-22T22:45:27.573Z,4.05
2023-01-22T22:50:33.731Z,5.65
2023-01-22T22:55:40.145Z,3.83
2023-01-22T23:00:46.320Z,3.92
2023-01-22T23:05:52.688Z,5.03
2023-01-22T23:10:58.861Z,4.50
2023-01-22T23:16:05.203Z,4.22
2023-01-22T23:21:11.332Z,5.42
2023-01-22T23:26:17.487Z,4.44
2023-01-22T23:31:23.629Z,5.50
2023-01-22T23:36:29.865Z,3.76
2023-01-22T23:41:36.039Z,4.34
2023-01-22T23:46:42.294Z,5.00
2023-01-22T23:51:48.386Z,4.46
2023-01-22T23:56:54.609Z,4.40
